Time;durP1;ratioP1;P1;durP2;ratioP2;P2;SDS_P1;SDS_P2;PMS_P1;PMS_P2;Temp;Humidity;BMP_temperature;BMP_pressure;BME280_temperature;BME280_humidity;BME280_pressure;Samples;Min_cycle;Max_cycle;Signal;HPM_P1;HPM_P2
2021/03/19 00:04:39;;;;;;;40.70;20.67;;;;;;;-0.92;100.00;94412.63;10463544;28;20026;-77
2021/03/19 00:09:40;;;;;;;40.90;19.57;;;;;;;-0.89;100.00;94417.47;10489028;28;20107;-76
2021/03/19 00:14:40;;;;;;;44.03;19.20;;;;;;;-0.87;100.00;94412.00;10489469;28;20108;-76
2021/03/19 00:19:41;;;;;;;42.83;19.05;;;;;;;-0.82;100.00;94411.34;10488838;28;20309;-75
2021/03/19 00:24:41;;;;;;;37.03;17.97;;;;;;;-0.73;100.00;94415.38;10488389;28;20029;-76
2021/03/19 00:29:41;;;;;;;36.57;17.90;;;;;;;-0.62;100.00;94417.34;10487940;28;20319;-76
2021/03/19 00:34:42;;;;;;;36.87;18.00;;;;;;;-0.58;100.00;94428.31;10487468;28;20063;-76
2021/03/19 00:39:43;;;;;;;36.17;18.17;;;;;;;-0.57;100.00;94422.81;10486234;28;20044;-76
2021/03/19 00:44:43;;;;;;;40.58;19.60;;;;;;;-0.57;100.00;94419.38;10485269;28;20066;-76
2021/03/19 00:49:43;;;;;;;43.33;20.80;;;;;;;-0.54;100.00;94408.38;10485340;28;20103;-77
2021/03/19 00:54:44;;;;;;;44.67;21.10;;;;;;;-0.63;100.00;94409.66;10486101;28;20044;-77
2021/03/19 00:59:44;;;;;;;37.07;19.27;;;;;;;-0.64;100.00;94414.13;10485326;28;20032;-76
2021/03/19 01:04:44;;;;;;;38.03;19.37;;;;;;;-0.72;100.00;94411.72;10484887;28;20330;-75
2021/03/19 01:09:45;;;;;;;36.70;17.67;;;;;;;-0.76;100.00;94405.25;10484514;28;20271;-76
2021/03/19 01:14:45;;;;;;;36.97;17.10;;;;;;;-0.71;100.00;94405.44;10484742;28;20135;-76
2021/03/19 01:19:47;;;;;;;35.80;18.80;;;;;;;-0.57;100.00;94401.69;10487023;28;20028;-76
2021/03/19 01:24:48;;;;;;;37.58;19.25;;;;;;;-0.49;100.00;94399.81;10485686;28;20028;-76
2021/03/19 01:29:48;;;;;;;35.70;16.63;;;;;;;-0.48;100.00;94401.44;10486024;28;20035;-76
2021/03/19 01:34:48;;;;;;;36.17;16.30;;;;;;;-0.46;100.00;94402.03;10487684;28;20030;-76
2021/03/19 01:39:49;;;;;;;30.98;16.85;;;;;;;-0.53;100.00;94389.69;10485121;28;20090;-76
2021/03/19 01:45:07;;;;;;;32.87;14.77;;;;;;;-0.50;100.00;94395.56;10482194;28;20502;-76
2021/03/19 01:50:29;;;;;;;;;;;;;;;-0.60;100.00;94388.94;10484355;28;20068;-76
2021/03/19 01:56:07;;;;;;;30.42;16.73;;;;;;;-0.54;100.00;94393.34;10485468;28;20083;-76
2021/03/19 02:01:45;;;;;;;30.40;15.85;;;;;;;-0.50;100.00;94387.63;10484264;28;20028;-75
2021/03/19 02:07:23;;;;;;;33.45;15.80;;;;;;;-0.60;100.00;94388.94;10480803;28;20033;-76
2021/03/19 02:13:01;;;;;;;29.05;14.52;;;;;;;-0.50;100.00;94379.72;10484522;28;20031;-76
2021/03/19 02:18:38;;;;;;;33.97;14.15;;;;;;;-0.44;100.00;94376.25;10484284;28;20043;-76
2021/03/19 02:24:16;;;;;;;25.70;14.57;;;;;;;-0.46;100.00;94386.19;10484718;28;20174;-76
2021/03/19 02:29:54;;;;;;;25.80;14.27;;;;;;;-0.40;100.00;94385.34;10484012;28;20094;-77
2021/03/19 02:35:08;;;;;;;21.80;12.57;;;;;;;-0.33;100.00;94383.47;10483603;28;20064;-76
2021/03/19 02:40:21;;;;;;;30.42;14.57;;;;;;;-0.26;100.00;94378.94;10483557;28;20846;-76
2021/03/19 02:45:22;;;;;;;29.17;12.77;;;;;;;-0.22;100.00;94382.78;10482975;28;20029;-76
2021/03/19 02:50:23;;;;;;;26.20;13.02;;;;;;;-0.28;100.00;94378.38;10482631;28;20048;-76
2021/03/19 02:55:23;;;;;;;23.67;12.50;;;;;;;-0.24;100.00;94373.44;10483386;28;20027;-76
2021/03/19 03:00:25;;;;;;;41.83;20.37;;;;;;;-0.32;100.00;94373.72;10485109;28;20279;-76
2021/03/19 03:05:25;;;;;;;38.47;20.67;;;;;;;-0.43;100.00;94369.91;10483282;28;20086;-76
2021/03/19 03:10:29;;;;;;;38.90;19.42;;;;;;;-0.49;100.00;94373.41;10488888;28;20025;-76
2021/03/19 03:15:30;;;;;;;38.00;17.98;;;;;;;-0.55;100.00;94369.81;10489874;28;20036;-76
2021/03/19 03:20:53;;;;;;;39.20;20.10;;;;;;;-0.49;100.00;94368.16;10490255;28;20098;-76
2021/03/19 03:25:55;;;;;;;38.42;18.30;;;;;;;-0.46;100.00;94365.91;10487348;28;20401;-77
2021/03/19 03:30:57;;;;;;;38.83;18.25;;;;;;;-0.47;100.00;94374.84;10486186;28;20404;-76
2021/03/19 03:35:58;;;;;;;48.63;19.60;;;;;;;-0.38;100.00;94378.00;10487014;28;20034;-77
2021/03/19 03:41:03;;;;;;;42.60;20.57;;;;;;;-0.61;100.00;94368.81;10490825;28;20028;-77
2021/03/19 03:46:06;;;;;;;38.00;17.27;;;;;;;-0.47;100.00;94366.13;10489554;28;20753;-77
2021/03/19 03:51:08;;;;;;;44.03;17.45;;;;;;;-0.42;100.00;94366.25;10489135;28;20593;-75
2021/03/19 03:56:13;;;;;;;49.40;21.25;;;;;;;-0.38;100.00;94364.81;10488638;28;20472;-76
2021/03/19 04:01:13;;;;;;;46.05;22.08;;;;;;;-0.38;100.00;94367.47;10488495;28;20400;-76
2021/03/19 04:06:14;;;;;;;44.17;21.85;;;;;;;-0.32;100.00;94385.09;10487216;28;20033;-76
2021/03/19 04:11:18;;;;;;;47.30;22.42;;;;;;;-0.27;100.00;94384.44;10488865;28;20036;-77
2021/03/19 04:16:19;;;;;;;46.78;20.42;;;;;;;-0.31;100.00;94380.63;10489237;28;20031;-77
2021/03/19 04:21:19;;;;;;;45.50;18.92;;;;;;;-0.27;100.00;94389.72;10487293;28;20046;-75
2021/03/19 04:26:34;;;;;;;42.67;23.00;;;;;;;-0.25;100.00;94382.38;10486450;28;20028;-76
2021/03/19 04:31:35;;;;;;;40.45;19.70;;;;;;;-0.17;100.00;94382.13;10486744;28;20016;-75
2021/03/19 04:36:47;;;;;;;51.45;20.33;;;;;;;-0.13;100.00;94391.25;10480157;28;20484;-76
2021/03/19 04:41:52;;;;;;;40.13;20.35;;;;;;;-0.23;100.00;94386.44;10486467;28;20041;-76
2021/03/19 04:46:53;;;;;;;41.33;19.35;;;;;;;-0.13;100.00;94393.09;10486311;28;20028;-76
2021/03/19 04:51:54;;;;;;;40.85;19.80;;;;;;;-0.33;100.00;94394.03;10486713;28;20049;-76
2021/03/19 04:56:55;;;;;;;48.65;21.55;;;;;;;-0.15;100.00;94390.66;10486332;28;20032;-76
2021/03/19 05:01:59;;;;;;;52.15;21.40;;;;;;;-0.09;100.00;94402.19;10486873;28;20036;-78
2021/03/19 05:07:06;;;;;;;43.60;22.40;;;;;;;-0.09;100.00;94403.00;10486722;28;20021;-77
2021/03/19 05:12:07;;;;;;;45.95;21.45;;;;;;;-0.01;100.00;94400.09;10485124;28;20257;-77
2021/03/19 05:17:07;;;;;;;46.97;20.23;;;;;;;0.07;100.00;94401.66;10484815;28;20042;-77
2021/03/19 05:22:08;;;;;;;40.10;20.07;;;;;;;0.11;100.00;94402.84;10476915;28;20838;-77
2021/03/19 05:27:08;;;;;;;39.75;19.08;;;;;;;0.18;100.00;94408.06;10454068;28;20060;-77
2021/03/19 05:32:08;;;;;;;39.38;17.55;;;;;;;0.16;100.00;94415.41;10486050;28;20068;-77
2021/03/19 05:37:09;;;;;;;32.00;14.63;;;;;;;0.24;100.00;94415.16;10445259;28;20025;-75
2021/03/19 05:42:15;;;;;;;32.67;15.43;;;;;;;0.32;100.00;94422.81;10442586;28;20029;-75
2021/03/19 05:47:16;;;;;;;25.08;13.35;;;;;;;0.37;100.00;94430.06;10457863;28;20141;-75
2021/03/19 05:52:22;;;;;;;32.90;14.20;;;;;;;0.49;100.00;94438.13;10480646;28;20408;-75
2021/03/19 05:57:29;;;;;;;27.58;13.82;;;;;;;0.64;100.00;94437.75;10482148;28;20120;-74
2021/03/19 06:02:31;;;;;;;26.75;12.77;;;;;;;0.84;100.00;94438.38;10492149;28;20028;-74
2021/03/19 06:07:53;;;;;;;27.35;13.60;;;;;;;0.78;100.00;94441.91;10480918;28;20040;-75
2021/03/19 06:13:07;;;;;;;29.67;13.60;;;;;;;0.72;100.00;94442.75;10473534;28;20036;-74
2021/03/19 06:18:25;;;;;;;30.85;11.70;;;;;;;0.82;100.00;94440.44;10441954;28;20473;-75
2021/03/19 06:23:26;;;;;;;62.70;26.70;;;;;;;1.21;100.00;94439.41;10447613;28;20037;-76
2021/03/19 06:28:31;;;;;;;80.95;32.67;;;;;;;1.45;100.00;94438.50;10448288;28;20033;-76
2021/03/19 06:33:32;;;;;;;69.40;32.65;;;;;;;1.87;100.00;94457.09;10480430;28;20043;-75
2021/03/19 06:38:40;;;;;;;61.63;27.37;;;;;;;2.65;100.00;94440.38;10480719;28;20040;-76
2021/03/19 06:43:40;;;;;;;55.35;26.27;;;;;;;3.58;100.00;94449.22;10459740;28;20037;-76
2021/03/19 06:48:44;;;;;;;75.60;33.27;;;;;;;4.23;100.00;94455.19;10482280;28;20476;-76
2021/03/19 06:54:05;;;;;;;69.85;31.42;;;;;;;5.29;100.00;94448.25;10489324;28;20297;-74
2021/03/19 06:59:22;;;;;;;57.40;29.00;;;;;;;5.95;92.08;94452.72;10488757;28;20131;-74
2021/03/19 07:04:37;;;;;;;55.63;27.40;;;;;;;6.44;82.00;94449.22;10488707;28;20143;-75
2021/03/19 07:09:50;;;;;;;54.13;27.23;;;;;;;7.51;78.58;94444.84;10482714;28;20098;-75
2021/03/19 07:14:58;;;;;;;58.42;25.92;;;;;;;8.29;63.12;94449.38;10462720;28;20032;-75
2021/03/19 07:20:22;;;;;;;39.83;21.27;;;;;;;8.64;59.62;94439.78;10458723;28;20032;-76
2021/03/19 07:25:44;;;;;;;44.88;20.05;;;;;;;9.46;55.14;94430.81;10472042;28;20044;-76
2021/03/19 07:30:51;;;;;;;46.92;22.95;;;;;;;10.12;52.83;94436.13;10459517;28;20166;-75
2021/03/19 07:36:04;;;;;;;46.40;23.58;;;;;;;10.62;50.59;94426.19;10446048;28;20804;-76
2021/03/19 07:41:32;;;;;;;36.92;19.30;;;;;;;9.75;50.17;94439.03;10466016;28;20567;-76
2021/03/19 07:46:54;;;;;;;31.43;17.40;;;;;;;7.66;53.56;94442.25;10481021;28;20021;-75
2021/03/19 07:52:14;;;;;;;26.40;13.30;;;;;;;7.31;55.97;94441.03;10467455;28;20503;-76
2021/03/19 07:57:48;;;;;;;20.25;11.43;;;;;;;7.35;58.50;94426.06;10454891;28;20036;-75
2021/03/19 08:03:01;;;;;;;28.80;11.88;;;;;;;9.35;51.78;94424.66;10470150;28;20786;-77
2021/03/19 08:08:16;;;;;;;25.50;12.15;;;;;;;11.74;46.50;94412.69;10485677;28;20025;-76
2021/03/19 08:13:35;;;;;;;16.73;9.23;;;;;;;12.36;43.63;94424.56;10458966;28;20021;-77
2021/03/19 08:18:40;;;;;;;;;;;;;;;13.08;40.11;94418.03;10455354;28;20043;-76
2021/03/19 08:23:43;;;;;;;16.63;9.65;;;;;;;13.33;37.60;94417.56;10448197;28;19955;-75
2021/03/19 08:29:12;;;;;;;25.83;11.45;;;;;;;12.22;41.07;94421.78;10474459;28;20036;-75
2021/03/19 08:34:21;;;;;;;18.55;9.38;;;;;;;13.07;38.49;94413.72;10484656;28;20021;-75
2021/03/19 08:39:33;;;;;;;19.85;10.55;;;;;;;12.32;40.16;94397.38;10481974;28;20027;-75
2021/03/19 08:44:37;;;;;;;18.80;10.32;;;;;;;13.39;39.85;94409.41;10469270;28;20480;-75
2021/03/19 08:49:42;;;;;;;16.35;9.10;;;;;;;11.13;42.86;94406.09;10453737;28;20025;-75
2021/03/19 08:54:42;;;;;;;20.58;10.93;;;;;;;10.31;46.62;94414.81;10443829;28;20085;-75
2021/03/19 08:59:42;;;;;;;21.53;11.07;;;;;;;8.98;49.84;94417.75;10481688;28;20021;-75
2021/03/19 09:04:52;;;;;;;23.45;11.27;;;;;;;8.77;50.70;94408.16;10480755;28;20047;-76
2021/03/19 09:10:18;;;;;;;21.88;10.90;;;;;;;7.90;53.16;94408.84;10481099;28;20143;-75
2021/03/19 09:15:18;;;;;;;33.35;12.00;;;;;;;8.14;53.36;94411.88;10477358;28;20396;-75
2021/03/19 09:20:37;;;;;;;25.08;8.82;;;;;;;8.53;48.52;94401.47;10481148;28;20016;-75
2021/03/19 09:25:54;;;;;;;18.02;9.85;;;;;;;8.87;48.41;94405.47;10455525;28;20044;-75
2021/03/19 09:31:15;;;;;;;21.35;11.05;;;;;;;9.32;52.00;94401.09;10482807;28;20036;-75
2021/03/19 09:36:50;;;;;;;17.55;9.50;;;;;;;11.41;49.15;94387.50;10454835;28;20133;-76
2021/03/19 09:41:51;;;;;;;18.52;9.60;;;;;;;13.60;39.70;94388.22;10451905;28;20071;-75
2021/03/19 09:47:01;;;;;;;16.83;9.38;;;;;;;15.05;36.24;94378.50;10461106;28;20031;-76
2021/03/19 09:52:12;;;;;;;19.33;9.80;;;;;;;14.37;35.95;94378.47;10454225;28;20048;-76
2021/03/19 09:57:15;;;;;;;14.23;8.10;;;;;;;17.53;33.47;94361.78;10448875;28;20137;-77
2021/03/19 10:02:39;;;;;;;13.85;8.93;;;;;;;18.39;30.53;94360.81;10447633;28;20081;-76
2021/03/19 10:07:46;;;;;;;15.68;8.88;;;;;;;19.21;31.13;94357.53;10458339;28;20100;-76
2021/03/19 10:12:46;;;;;;;15.50;9.10;;;;;;;20.11;29.33;94359.69;10478708;28;20052;-76
2021/03/19 10:17:56;;;;;;;13.30;8.23;;;;;;;20.26;27.10;94356.25;10475656;28;20020;-76
2021/03/19 10:23:12;;;;;;;11.48;8.07;;;;;;;20.24;29.34;94368.63;10486224;28;20392;-75
2021/03/19 10:28:12;;;;;;;10.88;7.43;;;;;;;18.16;29.45;94380.19;10466038;28;20108;-76
2021/03/19 10:33:17;;;;;;;16.53;7.33;;;;;;;17.05;30.65;94371.88;10448736;28;20506;-75
2021/03/19 10:38:48;;;;;;;19.58;9.32;;;;;;;20.31;27.21;94352.47;10453723;28;20408;-77
2021/03/19 10:44:12;;;;;;;12.27;8.00;;;;;;;17.08;30.75;94365.00;10447448;28;20733;-76
2021/03/19 10:49:19;;;;;;;15.70;8.15;;;;;;;17.54;30.51;94363.41;10450259;28;20447;-77
2021/03/19 10:54:22;;;;;;;9.97;6.00;;;;;;;16.97;28.53;94342.00;10478709;28;20041;-76
2021/03/19 10:59:25;;;;;;;18.17;8.35;;;;;;;13.15;34.92;94351.78;10484606;28;20094;-76
2021/03/19 11:04:41;;;;;;;14.63;8.43;;;;;;;12.08;36.77;94355.19;10486284;28;20024;-77
2021/03/19 11:10:12;;;;;;;14.70;7.32;;;;;;;10.60;38.25;94361.97;10472108;28;20288;-77
2021/03/19 11:15:28;;;;;;;17.55;8.48;;;;;;;11.57;38.90;94353.94;10485085;28;20035;-75
2021/03/19 11:20:36;;;;;;;10.25;5.72;;;;;;;14.32;32.86;94338.06;10485894;28;20562;-75
2021/03/19 11:25:56;;;;;;;11.40;6.97;;;;;;;13.13;34.32;94343.19;10482463;28;20403;-74
2021/03/19 11:31:27;;;;;;;12.98;7.35;;;;;;;11.77;37.32;94350.19;10481817;28;20410;-75
2021/03/19 11:37:19;;;;;;;9.63;6.45;;;;;;;10.49;38.45;94347.00;10480012;28;20025;-74
2021/03/19 11:42:26;;;;;;;12.10;6.97;;;;;;;9.11;42.62;94356.63;10462323;28;20557;-74
2021/03/19 11:47:31;;;;;;;12.30;7.18;;;;;;;8.63;42.80;94354.31;10485330;28;20021;-74
2021/03/19 11:52:32;;;;;;;13.20;7.93;;;;;;;8.26;46.39;94344.66;10486651;28;20419;-74
2021/03/19 11:57:32;;;;;;;15.57;8.63;;;;;;;8.77;43.79;94349.22;10486840;28;20025;-74
2021/03/19 12:02:41;;;;;;;16.38;6.15;;;;;;;9.54;42.07;94330.16;10485905;28;20024;-74
2021/03/19 12:07:55;;;;;;;12.48;6.78;;;;;;;9.55;42.97;94326.41;10486199;28;20036;-75
2021/03/19 12:12:57;;;;;;;11.98;7.22;;;;;;;9.76;41.27;94327.09;10484350;28;20090;-74
2021/03/19 12:18:20;;;;;;;11.43;6.88;;;;;;;9.99;41.60;94331.00;10479473;28;20047;-75
2021/03/19 12:23:20;;;;;;;11.05;6.32;;;;;;;9.63;41.58;94341.13;10484020;28;20602;-74
2021/03/19 12:28:33;;;;;;;11.38;7.30;;;;;;;9.38;41.69;94340.97;10483119;28;20019;-75
2021/03/19 12:33:36;;;;;;;13.18;6.88;;;;;;;9.07;43.80;94345.66;10483347;28;20025;-75
2021/03/19 12:38:37;;;;;;;13.50;6.95;;;;;;;8.24;43.42;94336.13;10482411;28;20032;-74
2021/03/19 12:43:54;;;;;;;11.15;7.22;;;;;;;7.81;43.50;94328.31;10484219;28;20028;-75
2021/03/19 12:48:55;;;;;;;23.95;8.40;;;;;;;8.07;47.18;94318.44;10471464;28;20510;-75
2021/03/19 12:53:58;;;;;;;10.43;6.70;;;;;;;8.18;44.97;94306.66;10484592;28;20182;-75
2021/03/19 12:59:02;;;;;;;31.80;8.27;;;;;;;7.95;45.09;94316.00;10483164;28;20287;-75
2021/03/19 13:04:05;;;;;;;16.13;7.60;;;;;;;7.95;44.44;94325.94;10485522;28;20682;-75
2021/03/19 13:09:11;;;;;;;15.60;8.48;;;;;;;7.73;43.21;94328.84;10484471;28;20207;-75
2021/03/19 13:14:35;;;;;;;19.60;8.32;;;;;;;7.69;44.94;94334.72;10483158;28;20029;-75
2021/03/19 13:19:35;;;;;;;14.88;9.05;;;;;;;7.65;46.24;94333.63;10441908;28;20036;-75
2021/03/19 13:24:39;;;;;;;19.27;8.10;;;;;;;7.82;43.16;94324.56;10442801;28;20032;-75
2021/03/19 13:29:44;;;;;;;14.45;8.45;;;;;;;7.96;45.69;94322.97;10443430;28;20078;-75
2021/03/19 13:34:45;;;;;;;17.00;7.43;;;;;;;8.02;44.00;94313.91;10442385;28;20100;-74
2021/03/19 13:39:48;;;;;;;13.25;7.50;;;;;;;8.12;44.90;94315.78;10441117;28;20052;-74
2021/03/19 13:44:49;;;;;;;20.20;9.73;;;;;;;8.27;44.91;94317.63;10440537;28;20025;-74
2021/03/19 13:49:51;;;;;;;17.98;8.52;;;;;;;8.23;45.28;94313.88;10440382;28;20625;-74
2021/03/19 13:54:55;;;;;;;12.98;7.57;;;;;;;8.00;44.78;94315.22;10441024;28;20029;-74
2021/03/19 13:59:55;;;;;;;14.32;8.30;;;;;;;7.80;45.88;94340.06;10440945;28;20036;-74
2021/03/19 14:05:01;;;;;;;16.10;8.07;;;;;;;7.53;45.74;94341.91;10440643;28;20381;-75
2021/03/19 14:10:03;;;;;;;13.75;7.88;;;;;;;7.61;46.79;94345.13;10440956;28;20021;-74
2021/03/19 14:15:06;;;;;;;14.98;7.97;;;;;;;7.75;45.67;94356.13;10476950;28;20039;-74
2021/03/19 14:20:09;;;;;;;14.63;8.60;;;;;;;7.42;47.49;94352.81;10479425;28;20065;-74
2021/03/19 14:25:13;;;;;;;14.82;8.43;;;;;;;7.25;47.46;94350.38;10441761;28;20763;-75
2021/03/19 14:30:35;;;;;;;13.18;8.05;;;;;;;6.81;47.67;94343.50;10441387;28;20036;-75
2021/03/19 14:35:36;;;;;;;13.55;7.60;;;;;;;6.84;48.30;94348.31;10478702;28;20082;-75
2021/03/19 14:40:43;;;;;;;15.48;7.93;;;;;;;6.81;47.97;94354.97;10481922;28;20085;-75
2021/03/19 14:45:52;;;;;;;21.00;8.10;;;;;;;6.65;50.24;94354.06;10454995;28;20036;-74
2021/03/19 14:51:00;;;;;;;14.18;7.80;;;;;;;6.82;48.67;94351.25;10476904;28;20040;-75
2021/03/19 14:56:00;;;;;;;14.00;7.57;;;;;;;6.92;47.41;94357.69;10479458;28;20464;-75
2021/03/19 15:01:03;;;;;;;13.23;8.18;;;;;;;6.75;47.75;94360.53;10476940;28;20025;-75
2021/03/19 15:06:11;;;;;;;12.57;7.30;;;;;;;6.39;49.14;94363.78;10448048;28;20048;-75
2021/03/19 15:11:21;;;;;;;14.98;7.68;;;;;;;6.31;49.44;94375.72;10448176;28;20033;-74
2021/03/19 15:16:32;;;;;;;13.35;7.50;;;;;;;6.32;48.35;94382.69;10468043;28;20036;-75
2021/03/19 15:21:52;;;;;;;16.88;8.15;;;;;;;6.10;50.50;94384.63;10453450;28;20032;-74
2021/03/19 15:26:55;;;;;;;15.20;8.75;;;;;;;5.90;49.84;94387.88;10488765;28;20520;-75
2021/03/19 15:32:05;;;;;;;18.48;8.45;;;;;;;5.74;51.78;94397.59;10484639;28;20055;-75
2021/03/19 15:37:08;;;;;;;13.50;8.32;;;;;;;5.79;52.33;94406.44;10466995;28;20896;-75
2021/03/19 15:42:12;;;;;;;15.50;8.68;;;;;;;5.67;50.69;94399.66;10475417;28;20028;-75
2021/03/19 15:47:12;;;;;;;13.10;7.60;;;;;;;5.65;51.55;94398.03;10488023;28;20476;-75
2021/03/19 15:52:13;;;;;;;14.95;8.90;;;;;;;5.39;50.66;94396.94;10469512;28;20060;-74
2021/03/19 15:57:30;;;;;;;14.35;8.63;;;;;;;5.20;54.34;94416.94;10485643;28;20098;-74
2021/03/19 16:02:38;;;;;;;16.98;8.93;;;;;;;5.02;54.26;94431.38;10483781;28;20044;-74
2021/03/19 16:07:39;;;;;;;15.70;8.13;;;;;;;4.80;54.97;94437.47;10476420;28;20435;-74
2021/03/19 16:12:44;;;;;;;20.90;10.18;;;;;;;4.64;55.68;94440.94;10470135;28;20031;-74
2021/03/19 16:17:52;;;;;;;16.85;9.88;;;;;;;4.62;55.42;94431.34;10457967;28;20778;-74
2021/03/19 16:22:55;;;;;;;16.73;9.35;;;;;;;4.56;57.81;94448.28;10458938;28;20031;-75
2021/03/19 16:27:56;;;;;;;18.55;10.48;;;;;;;4.35;56.71;94443.69;10510387;28;20033;-74
2021/03/19 16:33:29;;;;;;;17.65;9.32;;;;;;;4.30;55.72;94449.72;10460216;28;20511;-74
2021/03/19 16:38:52;;;;;;;22.98;8.55;;;;;;;4.24;57.89;94463.97;10443513;28;20116;-75
2021/03/19 16:44:09;;;;;;;28.83;10.13;;;;;;;4.11;57.86;94473.06;10455564;28;20028;-74
2021/03/19 16:49:09;;;;;;;32.90;11.40;;;;;;;4.00;58.63;94473.94;10476891;28;20359;-75
2021/03/19 16:54:12;;;;;;;20.75;11.93;;;;;;;4.04;60.74;94477.72;10460627;28;20056;-75
2021/03/19 16:59:19;;;;;;;17.70;9.77;;;;;;;3.90;60.37;94488.63;10464897;28;20021;-74
2021/03/19 17:04:22;;;;;;;21.50;10.88;;;;;;;3.46;60.37;94492.81;10472324;28;20021;-76
2021/03/19 17:09:23;;;;;;;17.20;10.15;;;;;;;3.31;60.66;94490.63;10484125;28;20076;-76
2021/03/19 17:14:26;;;;;;;24.17;9.98;;;;;;;3.20;63.10;94489.63;10484339;28;20027;-74
2021/03/19 17:19:29;;;;;;;18.77;9.80;;;;;;;3.34;64.09;94492.84;10482355;28;20043;-74
2021/03/19 17:24:36;;;;;;;19.80;8.73;;;;;;;3.14;60.89;94494.03;10483136;28;20051;-74
2021/03/19 17:30:05;;;;;;;17.90;9.40;;;;;;;3.06;62.01;94503.16;10483758;28;20024;-74
2021/03/19 17:35:07;;;;;;;24.85;11.20;;;;;;;2.93;60.16;94499.91;10473796;28;20062;-75
2021/03/19 17:40:08;;;;;;;19.27;10.48;;;;;;;2.74;62.27;94500.03;10445971;28;20498;-75
2021/03/19 17:45:18;;;;;;;22.17;12.00;;;;;;;2.70;65.28;94506.84;10453891;28;20038;-75
2021/03/19 17:50:20;;;;;;;27.85;15.02;;;;;;;2.65;72.51;94523.44;10482167;28;20049;-74
2021/03/19 17:55:23;;;;;;;26.05;14.98;;;;;;;2.62;71.19;94526.53;10480082;28;20025;-75
2021/03/19 18:00:25;;;;;;;27.20;13.75;;;;;;;2.67;72.80;94539.13;10467471;28;20518;-76
2021/03/19 18:05:29;;;;;;;26.85;12.75;;;;;;;2.69;70.36;94537.88;10457285;28;20033;-74
2021/03/19 18:10:31;;;;;;;28.42;12.73;;;;;;;2.68;69.02;94546.03;10448415;28;20388;-75
2021/03/19 18:15:31;;;;;;;28.75;14.30;;;;;;;2.70;69.67;94539.47;10460556;28;20024;-75
2021/03/19 18:20:33;;;;;;;35.05;17.08;;;;;;;2.72;69.90;94548.03;10478544;28;20558;-74
2021/03/19 18:25:34;;;;;;;41.33;18.15;;;;;;;2.78;68.71;94551.59;10442681;28;20114;-74
2021/03/19 18:30:35;;;;;;;34.58;13.90;;;;;;;2.79;67.75;94553.22;10475803;28;20028;-77
2021/03/19 18:35:35;;;;;;;27.48;13.55;;;;;;;2.79;66.67;94553.22;10475569;28;20036;-74
2021/03/19 18:40:36;;;;;;;26.33;13.27;;;;;;;2.78;66.75;94566.69;10485591;28;20024;-74
2021/03/19 18:45:40;;;;;;;28.80;13.73;;;;;;;2.84;70.08;94565.81;10485888;28;20793;-75
2021/03/19 18:50:42;;;;;;;29.77;13.85;;;;;;;2.77;70.24;94573.06;10484361;28;20057;-74
2021/03/19 18:55:45;;;;;;;27.58;14.27;;;;;;;2.80;66.07;94572.59;10487703;28;20033;-75
2021/03/19 19:00:50;;;;;;;27.63;14.10;;;;;;;2.90;65.49;94576.31;10487701;28;20036;-75
2021/03/19 19:05:51;;;;;;;33.25;11.88;;;;;;;3.02;64.59;94573.66;10484034;28;20021;-75
2021/03/19 19:10:52;;;;;;;30.00;13.18;;;;;;;3.03;62.72;94563.88;10480326;28;20028;-74
2021/03/19 19:15:53;;;;;;;22.42;11.55;;;;;;;3.00;60.21;94556.34;10484314;28;20039;-74
2021/03/19 19:20:57;;;;;;;21.98;12.93;;;;;;;3.01;58.96;94561.44;10481961;28;20017;-75
2021/03/19 19:25:58;;;;;;;23.80;12.20;;;;;;;3.01;58.35;94563.28;10481287;28;20036;-75
2021/03/19 19:30:59;;;;;;;29.58;13.75;;;;;;;3.17;59.00;94569.78;10453066;28;20362;-75
2021/03/19 19:36:02;;;;;;;23.58;11.75;;;;;;;3.36;58.22;94562.47;10467237;28;20032;-75
2021/03/19 19:41:10;;;;;;;26.30;12.60;;;;;;;3.44;59.17;94567.44;10479703;28;20035;-75
2021/03/19 19:46:14;;;;;;;27.55;13.60;;;;;;;3.62;59.20;94568.34;10465214;28;20059;-74
2021/03/19 19:51:15;;;;;;;31.30;13.82;;;;;;;3.60;61.54;94571.25;10486670;28;20427;-74
2021/03/19 19:56:15;;;;;;;38.78;14.52;;;;;;;3.37;61.05;94570.22;10480994;28;20041;-74
2021/03/19 20:01:17;;;;;;;33.25;16.20;;;;;;;3.47;62.47;94580.25;10483142;28;20029;-75
2021/03/19 20:06:19;;;;;;;26.88;13.40;;;;;;;3.53;60.47;94589.97;10478694;28;20037;-75
2021/03/19 20:11:22;;;;;;;32.28;15.27;;;;;;;3.63;61.58;94600.00;10484686;28;20036;-75
2021/03/19 20:16:25;;;;;;;30.25;14.43;;;;;;;3.67;65.56;94600.34;10461176;28;20029;-75
2021/03/19 20:21:27;;;;;;;27.48;14.20;;;;;;;3.58;62.18;94602.53;10442320;28;20032;-75
2021/03/19 20:26:28;;;;;;;34.92;14.55;;;;;;;3.54;62.84;94602.19;10447502;28;20029;-75
2021/03/19 20:31:31;;;;;;;16.85;9.13;;;;;;;3.42;57.98;94607.53;10471696;28;20107;-75
2021/03/19 20:36:41;;;;;;;7.90;5.22;;;;;;;3.15;58.25;94627.59;10480385;28;20103;-75
2021/03/19 20:41:42;;;;;;;11.57;5.93;;;;;;;3.00;61.38;94633.34;10465914;28;20021;-74
2021/03/19 20:46:43;;;;;;;15.70;5.53;;;;;;;2.98;70.39;94652.16;10467136;28;20029;-75
2021/03/19 20:51:46;;;;;;;10.00;6.10;;;;;;;2.76;85.20;94646.53;10445388;28;20049;-75
2021/03/19 20:56:47;;;;;;;13.75;7.53;;;;;;;3.01;82.11;94642.94;10450682;28;20071;-75
2021/03/19 21:01:50;;;;;;;9.02;6.13;;;;;;;2.69;81.31;94645.84;10472983;28;20111;-75
2021/03/19 21:06:54;;;;;;;16.40;8.48;;;;;;;2.52;96.76;94657.06;10480490;28;20021;-75
2021/03/19 21:12:01;;;;;;;16.90;8.73;;;;;;;2.19;100.00;94670.75;10445112;28;20025;-75
2021/03/19 21:17:01;;;;;;;15.07;8.98;;;;;;;1.81;100.00;94685.84;10445110;28;20056;-74
2021/03/19 21:22:05;;;;;;;16.88;9.63;;;;;;;1.78;100.00;94690.78;10445397;28;20025;-75
2021/03/19 21:27:11;;;;;;;21.33;11.80;;;;;;;1.65;100.00;94689.88;10471497;28;20403;-74
2021/03/19 21:32:12;;;;;;;18.60;9.77;;;;;;;1.53;100.00;94688.97;10469190;28;20101;-75
2021/03/19 21:37:16;;;;;;;20.17;10.80;;;;;;;1.32;100.00;94701.56;10468867;28;20036;-75
2021/03/19 21:42:17;;;;;;;23.42;11.15;;;;;;;0.75;100.00;94696.25;10452255;28;20025;-75
2021/03/19 21:47:17;;;;;;;23.02;12.50;;;;;;;0.64;100.00;94707.50;10444038;28;20029;-75
2021/03/19 21:52:17;;;;;;;25.77;12.67;;;;;;;0.56;100.00;94713.03;10459477;28;20056;-75
2021/03/19 21:57:18;;;;;;;25.27;12.88;;;;;;;0.66;100.00;94708.13;10443493;28;20335;-75
2021/03/19 22:02:18;;;;;;;22.00;11.00;;;;;;;0.65;100.00;94714.44;10444133;28;20044;-75
2021/03/19 22:07:18;;;;;;;23.70;13.17;;;;;;;0.56;100.00;94707.75;10444722;28;20104;-75
2021/03/19 22:12:19;;;;;;;24.83;14.00;;;;;;;0.64;100.00;94705.69;10458818;28;20292;-75
2021/03/19 22:17:19;;;;;;;20.20;10.73;;;;;;;0.69;100.00;94710.34;10443673;28;20025;-75
2021/03/19 22:22:20;;;;;;;24.67;11.82;;;;;;;0.69;100.00;94705.03;10476727;28;20384;-75
2021/03/19 22:27:20;;;;;;;30.58;15.05;;;;;;;0.78;100.00;94708.25;10443150;28;20033;-75
2021/03/19 22:32:21;;;;;;;28.95;15.18;;;;;;;0.85;100.00;94706.38;10443012;28;20029;-75
2021/03/19 22:37:21;;;;;;;29.60;15.25;;;;;;;0.91;100.00;94702.88;10457656;28;20475;-75
2021/03/19 22:42:21;;;;;;;30.00;14.98;;;;;;;0.90;100.00;94695.16;10476127;28;20048;-75
2021/03/19 22:47:22;;;;;;;31.60;15.63;;;;;;;0.96;100.00;94702.22;10483721;28;20475;-75
2021/03/19 22:52:22;;;;;;;25.77;14.90;;;;;;;0.97;100.00;94715.25;10481666;28;20049;-75
2021/03/19 22:57:32;;;;;;;27.73;14.40;;;;;;;0.94;100.00;94717.53;10483968;28;20079;-75
2021/03/19 23:02:33;;;;;;;26.63;12.68;;;;;;;0.86;100.00;94721.22;10483681;28;20275;-75
2021/03/19 23:07:33;;;;;;;23.73;12.23;;;;;;;0.92;100.00;94712.44;10481583;28;20862;-75
2021/03/19 23:12:33;;;;;;;24.10;12.07;;;;;;;0.95;100.00;94716.47;10481815;28;20024;-75
2021/03/19 23:17:34;;;;;;;23.30;11.13;;;;;;;0.91;100.00;94716.13;10481233;28;20111;-75
2021/03/19 23:22:34;;;;;;;27.20;12.67;;;;;;;0.91;100.00;94712.63;10483206;28;20491;-75
2021/03/19 23:27:35;;;;;;;24.33;12.60;;;;;;;0.92;100.00;94719.56;10474575;28;20488;-74